Time;durP1;ratioP1;P1;durP2;ratioP2;P2;SDS_P1;SDS_P2;PMS_P1;PMS_P2;Temp;Humidity;BMP_temperature;BMP_pressure;BME280_temperature;BME280_humidity;BME280_pressure;Samples;Min_cycle;Max_cycle;Signal;HPM_P1;HPM_P2
2022/01/27 00:05:41;;;;;;;9.52;5.85;;;;;;;9.31;35.98;102348.47;143725;579;46009;-69
2022/01/27 00:08:15;;;;;;;6.93;4.45;;;;;;;9.33;35.76;102341.13;143723;578;46013;-69
2022/01/27 00:10:59;;;;;;;8.65;3.92;;;;;;;9.29;35.95;102337.88;143722;631;47006;-69
2022/01/27 00:13:32;;;;;;;8.15;4.75;;;;;;;9.35;35.79;102345.34;143723;583;46009;-67
2022/01/27 00:18:49;;;;;;;6.18;3.62;;;;;;;9.32;35.52;102342.94;143721;595;46012;-69
2022/01/27 00:21:18;;;;;;;5.60;3.62;;;;;;;9.30;35.64;102357.50;143724;588;47006;-70
2022/01/27 00:23:45;;;;;;;4.60;3.60;;;;;;;9.35;35.55;102349.88;143722;590;47008;-70
2022/01/27 00:26:13;;;;;;;4.82;3.65;;;;;;;9.29;35.65;102358.50;143725;590;47004;-70
2022/01/27 00:28:40;;;;;;;4.40;2.90;;;;;;;9.33;35.38;102344.63;143715;670;47923;-70
2022/01/27 00:31:07;;;;;;;6.35;3.50;;;;;;;9.31;35.43;102353.84;143723;566;47006;-69
2022/01/27 00:33:33;;;;;;;5.72;3.83;;;;;;;9.28;35.27;102354.12;143721;691;46008;-68
2022/01/27 00:36:00;;;;;;;7.03;3.60;;;;;;;9.28;35.22;102359.50;143725;642;47004;-68
2022/01/27 00:38:26;;;;;;;4.70;3.22;;;;;;;9.29;35.19;102367.38;143723;604;46012;-69
2022/01/27 00:40:53;;;;;;;6.40;4.10;;;;;;;9.24;35.61;102370.50;143721;659;47006;-70
2022/01/27 00:43:20;;;;;;;9.35;4.65;;;;;;;9.18;35.90;102363.06;143722;618;47009;-71
2022/01/27 00:45:47;;;;;;;6.25;4.35;;;;;;;9.07;36.05;102368.63;143723;629;47006;-70
2022/01/27 00:48:15;;;;;;;8.75;5.40;;;;;;;9.10;36.20;102366.47;143723;590;46010;-70
2022/01/27 00:50:43;;;;;;;7.18;5.00;;;;;;;9.03;36.21;102352.00;143722;598;47006;-68
2022/01/27 00:56:15;;;;;;;5.87;4.55;;;;;;;8.89;36.68;102366.72;143726;596;46011;-68
2022/01/27 00:58:57;;;;;;;6.97;4.30;;;;;;;8.70;37.30;102350.69;143724;597;46010;-69
2022/01/27 01:01:29;;;;;;;6.03;4.40;;;;;;;8.68;37.50;102356.22;143720;591;47006;-70
2022/01/27 01:03:59;;;;;;;7.65;4.32;;;;;;;8.71;37.47;102355.94;143723;745;46008;-69
2022/01/27 01:06:40;;;;;;;3.80;3.10;;;;;;;8.77;37.18;102352.66;143726;636;47002;-71
2022/01/27 01:10:00;;;;;;;5.30;4.10;;;;;;;8.85;37.09;102343.88;143724;569;46012;-69
2022/01/27 01:15:01;;;;;;;6.47;3.97;;;;;;;8.92;37.43;102342.31;143724;596;46008;-69
2022/01/27 01:17:38;;;;;;;7.60;4.78;;;;;;;8.88;37.51;102362.34;143727;588;47006;-69
2022/01/27 01:31:15;;;;;;;7.37;4.95;;;;;;;8.82;37.35;102344.19;143725;610;47004;-69
2022/01/27 01:33:43;;;;;;;4.18;3.50;;;;;;;8.92;36.50;102350.34;143720;601;47004;-69
2022/01/27 01:36:34;;;;;;;6.45;4.07;;;;;;;8.98;35.66;102345.41;143724;600;47006;-69
2022/01/27 01:39:00;;;;;;;3.37;2.72;;;;;;;9.04;34.66;102347.47;143724;665;47004;-68
2022/01/27 01:41:26;;;;;;;3.78;3.00;;;;;;;9.05;34.83;102351.84;143723;589;47010;-70
2022/01/27 01:43:53;;;;;;;4.55;2.92;;;;;;;9.08;34.68;102348.87;143723;580;47004;-70
2022/01/27 01:46:19;;;;;;;4.28;2.62;;;;;;;9.14;34.92;102350.97;143719;640;46006;-69
2022/01/27 01:48:45;;;;;;;4.95;2.78;;;;;;;9.20;34.32;102350.34;143725;702;46008;-69
2022/01/27 01:51:12;;;;;;;3.50;2.65;;;;;;;9.19;34.06;102340.62;143721;694;47011;-70
2022/01/27 01:53:39;;;;;;;3.58;2.47;;;;;;;9.20;33.99;102344.16;143720;586;47004;-69
2022/01/27 01:56:05;;;;;;;3.00;2.30;;;;;;;9.22;33.87;102334.13;143725;580;46006;-69
2022/01/27 01:58:32;;;;;;;3.08;2.55;;;;;;;9.18;33.84;102325.53;143725;585;47002;-70
2022/01/27 02:00:58;;;;;;;3.70;2.42;;;;;;;9.20;33.11;102338.78;143722;696;47010;-69
2022/01/27 02:03:24;;;;;;;4.28;2.83;;;;;;;9.21;33.34;102330.59;143725;587;47002;-68
2022/01/27 02:05:54;;;;;;;3.72;2.50;;;;;;;9.25;33.06;102329.31;143726;579;46006;-70
2022/01/27 02:19:26;;;;;;;4.97;3.10;;;;;;;9.28;32.51;102324.63;143726;581;46007;-70
2022/01/27 02:22:01;;;;;;;3.47;2.67;;;;;;;9.30;32.61;102326.16;143721;567;47010;-70
2022/01/27 02:24:28;;;;;;;;;;;;;;;9.30;32.64;102334.22;143726;980;47004;-69
2022/01/27 02:26:55;;;;;;;3.80;2.20;;;;;;;9.27;32.28;102331.81;143728;629;46009;-70
2022/01/27 02:29:23;;;;;;;3.25;2.33;;;;;;;9.29;32.83;102332.53;143727;582;47002;-70
2022/01/27 02:31:51;;;;;;;3.58;2.15;;;;;;;9.30;33.01;102338.75;143720;581;47008;-70
2022/01/27 02:34:18;;;;;;;3.78;2.60;;;;;;;9.33;33.20;102344.63;143725;629;47004;-70
2022/01/27 02:36:44;;;;;;;2.97;2.33;;;;;;;9.27;33.10;102336.34;143717;622;47006;-70
2022/01/27 02:39:11;;;;;;;3.25;2.70;;;;;;;9.25;33.45;102342.72;143725;680;47004;-69
2022/01/27 02:41:56;;;;;;;3.55;2.58;;;;;;;9.25;32.85;102340.03;143721;657;47008;-70
2022/01/27 02:44:56;;;;;;;4.22;3.05;;;;;;;9.25;33.15;102349.94;143723;705;47004;-70
2022/01/27 02:47:25;;;;;;;3.90;2.80;;;;;;;9.21;33.19;102352.03;143722;685;47006;-69
2022/01/27 02:49:52;;;;;;;2.92;2.22;;;;;;;9.20;33.19;102353.03;143726;589;47002;-69
2022/01/27 02:52:18;;;;;;;2.83;2.42;;;;;;;9.21;33.40;102357.41;143723;573;47008;-70
2022/01/27 02:54:45;;;;;;;3.03;2.60;;;;;;;9.24;33.52;102365.16;143724;572;47004;-70
2022/01/27 02:57:11;;;;;;;2.62;2.37;;;;;;;9.20;33.63;102361.06;143724;597;46006;-70
2022/01/27 02:59:38;;;;;;;3.12;2.53;;;;;;;9.19;33.88;102359.37;143726;654;47002;-70
2022/01/27 03:02:04;;;;;;;4.30;2.53;;;;;;;9.20;34.12;102362.91;143718;575;47010;-69
2022/01/27 03:04:33;;;;;;;2.58;2.37;;;;;;;9.21;33.92;102362.75;143722;710;47004;-69
2022/01/27 03:07:05;;;;;;;3.70;2.60;;;;;;;9.23;34.44;102368.00;143725;574;46006;-69
2022/01/27 03:09:33;;;;;;;3.62;2.78;;;;;;;9.19;34.46;102372.78;143750;574;46004;-70
2022/01/27 03:12:06;;;;;;;4.70;3.00;;;;;;;9.22;34.28;102368.97;143738;575;47002;-70
2022/01/27 03:14:33;;;;;;;7.82;5.57;;;;;;;9.19;34.21;102364.75;143753;644;46002;-69
2022/01/27 03:17:01;;;;;;;9.57;6.45;;;;;;;9.05;33.80;102365.25;143749;579;46006;-70
2022/01/27 03:19:28;;;;;;;12.50;11.07;;;;;;;8.91;34.22;102367.41;143755;739;46003;-68
2022/01/27 03:21:56;;;;;;;9.52;7.40;;;;;;;8.74;33.66;102363.66;143748;636;45924;-70
2022/01/27 03:24:24;;;;;;;9.50;7.32;;;;;;;8.59;33.90;102368.66;143751;641;46004;-68
2022/01/27 03:26:52;;;;;;;8.77;7.22;;;;;;;8.48;33.98;102363.44;143747;579;46923;-69
2022/01/27 03:29:19;;;;;;;10.88;7.62;;;;;;;8.39;34.38;102372.31;143754;597;46002;-69
2022/01/27 03:31:46;;;;;;;11.12;7.80;;;;;;;8.29;33.95;102383.03;143749;578;46008;-69
2022/01/27 03:34:14;;;;;;;12.93;8.82;;;;;;;8.08;34.05;102369.81;143747;584;46004;-68
2022/01/27 03:36:41;;;;;;;12.25;7.85;;;;;;;7.94;34.12;102379.94;143748;675;45922;-70
2022/01/27 03:39:10;;;;;;;11.88;8.80;;;;;;;7.95;34.35;102383.44;143750;623;46000;-69
2022/01/27 03:41:39;;;;;;;11.02;8.40;;;;;;;7.91;34.51;102390.06;143749;738;45019;-69
2022/01/27 03:44:08;;;;;;;11.68;7.47;;;;;;;7.83;34.59;102378.25;143747;622;46004;-69
2022/01/27 03:46:34;;;;;;;10.85;7.82;;;;;;;7.85;34.65;102392.31;143744;572;46006;-72
2022/01/27 03:49:00;;;;;;;9.63;7.97;;;;;;;7.79;34.67;102390.19;143728;629;47002;-69
2022/01/27 03:51:27;;;;;;;14.27;9.23;;;;;;;7.78;34.35;102390.31;143749;589;46008;-71
2022/01/27 03:53:53;;;;;;;10.57;8.65;;;;;;;7.74;34.46;102379.91;143748;656;45928;-69
2022/01/27 03:56:20;;;;;;;14.20;9.13;;;;;;;7.74;34.66;102393.28;143730;595;46007;-68
2022/01/27 03:58:46;;;;;;;13.05;9.88;;;;;;;7.57;35.18;102389.44;143734;586;47000;-69
2022/01/27 04:01:13;;;;;;;13.45;8.98;;;;;;;7.50;35.09;102390.13;143727;686;47010;-71
2022/01/27 04:03:39;;;;;;;13.00;10.13;;;;;;;7.35;35.14;102392.34;143728;631;47004;-71
2022/01/27 04:06:09;;;;;;;12.13;9.20;;;;;;;7.26;35.44;102394.00;143728;579;47008;-69
2022/01/27 04:08:38;;;;;;;11.90;8.68;;;;;;;7.24;35.41;102390.59;143728;589;47006;-71
2022/01/27 04:11:05;;;;;;;17.27;9.93;;;;;;;7.22;35.46;102390.75;143730;573;46012;-69
2022/01/27 04:13:32;;;;;;;13.05;9.50;;;;;;;7.09;35.78;102393.66;143728;592;47004;-70
2022/01/27 04:15:58;;;;;;;17.55;9.77;;;;;;;6.99;35.65;102400.78;143726;601;46008;-71
2022/01/27 04:18:25;;;;;;;16.67;10.48;;;;;;;6.94;36.13;102408.34;143730;693;47005;-71
2022/01/27 04:20:52;;;;;;;14.77;11.20;;;;;;;6.95;36.46;102415.38;143725;570;46012;-69
2022/01/27 04:23:19;;;;;;;14.65;10.48;;;;;;;7.00;36.38;102412.31;143722;590;47006;-70
2022/01/27 04:25:46;;;;;;;11.60;9.07;;;;;;;6.97;36.30;102408.06;143726;567;47009;-72
2022/01/27 04:28:19;;;;;;;14.48;9.43;;;;;;;6.97;36.74;102406.25;143734;585;47002;-70
2022/01/27 04:30:46;;;;;;;12.40;8.63;;;;;;;7.01;36.15;102411.31;143726;572;47012;-71
2022/01/27 04:33:12;;;;;;;13.05;8.43;;;;;;;7.02;36.42;102411.22;143726;586;47007;-71
2022/01/27 04:35:45;;;;;;;12.73;8.35;;;;;;;7.05;35.67;102424.31;143731;621;46008;-71
2022/01/27 04:38:24;;;;;;;11.80;7.70;;;;;;;7.10;35.91;102430.06;143727;604;47004;-71
2022/01/27 04:41:11;;;;;;;10.85;7.55;;;;;;;7.15;35.93;102426.16;143725;573;47010;-71
2022/01/27 04:43:46;;;;;;;10.88;8.07;;;;;;;7.13;36.09;102428.97;143727;643;47006;-71
2022/01/27 04:46:30;;;;;;;9.95;7.70;;;;;;;7.15;35.82;102426.16;143731;618;46008;-72
2022/01/27 04:49:01;;;;;;;10.45;8.18;;;;;;;7.20;35.70;102426.63;143733;581;47006;-72
2022/01/27 04:51:28;;;;;;;9.55;7.62;;;;;;;7.18;35.84;102418.72;143727;598;46012;-72
2022/01/27 04:54:03;;;;;;;12.32;8.48;;;;;;;7.22;35.99;102416.66;143725;580;47006;-72
2022/01/27 04:56:31;;;;;;;11.35;7.32;;;;;;;7.26;36.33;102424.25;143733;641;46009;-70
2022/01/27 04:59:03;;;;;;;10.77;8.02;;;;;;;7.29;36.17;102428.47;143729;570;47006;-70
2022/01/27 05:04:18;;;;;;;8.90;7.20;;;;;;;7.32;36.15;102424.72;143729;642;47012;-70
2022/01/27 05:06:45;;;;;;;14.52;9.23;;;;;;;7.25;35.52;102433.25;143727;568;46008;-70
2022/01/27 05:09:12;;;;;;;16.05;11.23;;;;;;;7.23;35.99;102429.03;143729;617;47006;-72
2022/01/27 05:11:47;;;;;;;23.20;15.73;;;;;;;7.28;35.88;102438.34;143725;601;47011;-72
2022/01/27 05:14:18;;;;;;;18.40;12.02;;;;;;;7.22;35.41;102433.50;143725;568;47004;-70
2022/01/27 05:16:45;;;;;;;11.43;9.30;;;;;;;7.20;35.64;102430.13;143727;606;47008;-71
2022/01/27 05:19:12;;;;;;;9.98;8.68;;;;;;;7.20;35.51;102429.28;143731;567;47004;-72
2022/01/27 05:21:38;;;;;;;15.23;9.82;;;;;;;7.17;36.18;102432.22;143727;567;47012;-72
2022/01/27 05:24:05;;;;;;;11.93;10.00;;;;;;;7.17;35.96;102429.56;143728;569;47006;-72
2022/01/27 05:26:35;;;;;;;15.50;10.00;;;;;;;7.10;35.87;102431.91;143726;612;47008;-72
2022/01/27 05:29:06;;;;;;;10.43;8.10;;;;;;;7.12;35.74;102433.47;143724;595;47006;-70
2022/01/27 05:31:33;;;;;;;16.65;9.52;;;;;;;7.19;35.80;102446.31;143727;606;46010;-70
2022/01/27 05:33:59;;;;;;;11.88;8.60;;;;;;;7.16;35.52;102439.38;143730;585;47007;-71
2022/01/27 05:36:25;;;;;;;12.40;8.77;;;;;;;7.16;35.89;102439.38;143729;584;47008;-70
2022/01/27 05:38:52;;;;;;;12.77;9.52;;;;;;;7.14;35.95;102446.72;143733;585;47004;-70
2022/01/27 05:41:19;;;;;;;11.55;8.70;;;;;;;7.22;35.74;102454.06;143729;611;46922;-70
2022/01/27 05:43:45;;;;;;;13.45;10.05;;;;;;;7.25;35.65;102456.44;143725;631;47006;-75
2022/01/27 05:46:12;;;;;;;13.48;11.07;;;;;;;7.06;36.17;102465.22;143727;566;46008;-74
2022/01/27 05:48:39;;;;;;;16.23;10.35;;;;;;;7.09;35.68;102465.78;143727;609;47006;-73
2022/01/27 05:51:05;;;;;;;15.05;10.93;;;;;;;7.10;35.74;102470.16;143725;635;47012;-74
2022/01/27 05:53:32;;;;;;;14.30;10.27;;;;;;;7.10;36.00;102472.81;143726;606;47004;-74
2022/01/27 05:56:00;;;;;;;15.45;8.90;;;;;;;7.09;35.89;102479.16;143726;589;47008;-74
2022/01/27 05:58:26;;;;;;;11.45;9.38;;;;;;;7.07;35.63;102478.44;143731;597;47006;-74
2022/01/27 06:00:53;;;;;;;14.85;10.98;;;;;;;7.10;36.00;102494.19;143728;599;46012;-73
2022/01/27 06:03:19;;;;;;;16.50;10.57;;;;;;;7.04;36.07;102494.75;143722;577;47006;-75
2022/01/27 06:05:46;;;;;;;15.27;11.95;;;;;;;7.07;35.93;102496.31;143725;592;46008;-74
2022/01/27 06:08:12;;;;;;;17.15;12.80;;;;;;;7.13;35.67;102498.47;143725;596;47002;-74
2022/01/27 06:10:39;;;;;;;15.60;12.73;;;;;;;7.16;35.58;102492.00;143723;581;47012;-74
2022/01/27 06:13:05;;;;;;;22.27;16.10;;;;;;;7.15;36.45;102492.97;143721;598;47006;-74
2022/01/27 06:15:32;;;;;;;21.80;11.50;;;;;;;7.20;36.03;102485.41;143725;584;46011;-75
2022/01/27 06:17:59;;;;;;;16.98;9.38;;;;;;;7.25;35.65;102500.06;143727;609;47002;-74
2022/01/27 06:20:28;;;;;;;15.00;9.50;;;;;;;7.31;35.68;102490.66;143725;588;46012;-73
2022/01/27 06:22:59;;;;;;;12.07;8.70;;;;;;;7.36;35.48;102480.44;143726;663;47006;-73
2022/01/27 06:25:28;;;;;;;15.02;8.90;;;;;;;7.45;35.55;102500.16;143723;575;48009;-73
2022/01/27 06:27:54;;;;;;;13.93;9.23;;;;;;;7.51;35.86;102499.59;143730;617;47002;-75
2022/01/27 06:30:21;;;;;;;10.90;8.45;;;;;;;7.55;35.21;102489.50;143726;604;47012;-73
2022/01/27 06:32:47;;;;;;;16.27;9.02;;;;;;;7.58;35.31;102498.09;143726;592;47006;-74
2022/01/27 06:35:14;;;;;;;12.45;8.55;;;;;;;7.65;35.55;102501.09;143729;575;46008;-73
2022/01/27 06:37:42;;;;;;;12.50;7.87;;;;;;;7.78;35.34;102505.34;143727;604;47004;-74
2022/01/27 06:40:14;;;;;;;13.10;8.82;;;;;;;7.82;35.00;102504.09;143727;579;46012;-74
2022/01/27 06:42:41;;;;;;;12.80;8.45;;;;;;;7.87;35.13;102504.53;143726;589;47004;-74
2022/01/27 06:45:09;;;;;;;13.80;8.57;;;;;;;7.93;34.89;102509.34;143724;673;47008;-74
2022/01/27 06:47:35;;;;;;;13.60;9.63;;;;;;;7.98;34.58;102501.75;143727;661;47005;-73
2022/01/27 06:50:02;;;;;;;13.00;9.85;;;;;;;8.08;34.78;102519.66;143724;615;47013;-73
2022/01/27 06:52:28;;;;;;;18.27;13.32;;;;;;;8.02;34.65;102508.50;143726;620;47006;-73
2022/01/27 06:54:56;;;;;;;19.80;14.63;;;;;;;7.98;34.92;102516.97;143725;610;46009;-73
2022/01/27 06:57:25;;;;;;;19.75;13.85;;;;;;;7.91;35.08;102515.81;143726;575;47002;-73
2022/01/27 06:59:51;;;;;;;18.45;11.32;;;;;;;8.00;34.65;102512.31;143723;677;47012;-74
2022/01/27 07:02:18;;;;;;;14.60;10.55;;;;;;;8.07;34.55;102512.63;143721;580;47007;-74
2022/01/27 07:04:44;;;;;;;17.95;11.68;;;;;;;8.15;34.28;102524.31;143725;622;46008;-74
2022/01/27 07:07:12;;;;;;;16.37;11.70;;;;;;;8.19;34.58;102517.72;143721;581;47004;-73
2022/01/27 07:09:42;;;;;;;14.10;10.88;;;;;;;8.21;34.19;102520.25;143716;589;47010;-73
2022/01/27 07:12:09;;;;;;;13.68;10.00;;;;;;;8.24;33.93;102519.13;143719;674;47006;-73
2022/01/27 07:14:36;;;;;;;15.02;10.45;;;;;;;8.31;34.24;102518.41;143721;675;46008;-74
2022/01/27 07:17:04;;;;;;;14.65;10.88;;;;;;;8.39;34.23;102523.06;143716;630;47006;-74
2022/01/27 07:19:30;;;;;;;20.05;12.50;;;;;;;8.43;34.15;102523.66;143717;602;46013;-75
2022/01/27 07:21:56;;;;;;;24.10;13.98;;;;;;;8.46;34.22;102529.56;143715;580;47006;-77
2022/01/27 07:24:25;;;;;;;18.02;12.48;;;;;;;8.48;34.26;102526.78;143719;575;46022;-71
2022/01/27 07:26:52;;;;;;;22.70;11.88;;;;;;;8.54;33.94;102526.22;143719;574;47006;-71
2022/01/27 07:29:18;;;;;;;15.18;11.90;;;;;;;8.62;34.01;102528.19;143718;607;47012;-70
2022/01/27 07:31:44;;;;;;;22.00;12.65;;;;;;;8.56;34.28;102520.75;143719;567;47014;-71
2022/01/27 07:34:11;;;;;;;19.35;11.25;;;;;;;8.56;34.36;102518.06;143718;572;46008;-70
2022/01/27 07:36:38;;;;;;;17.30;11.10;;;;;;;8.60;34.06;102520.31;143719;600;47004;-71
2022/01/27 07:39:04;;;;;;;16.77;11.88;;;;;;;8.71;34.14;102535.41;143721;617;46012;-71
2022/01/27 07:41:31;;;;;;;18.25;12.40;;;;;;;8.73;33.94;102530.75;143718;575;47006;-70
2022/01/27 07:43:57;;;;;;;17.67;12.20;;;;;;;8.76;33.92;102525.09;143719;686;46008;-70
2022/01/27 07:46:23;;;;;;;15.75;11.00;;;;;;;8.77;34.20;102524.09;143717;577;47004;-71
2022/01/27 07:48:49;;;;;;;20.55;11.50;;;;;;;8.83;33.80;102522.69;143717;645;47010;-71
2022/01/27 07:51:16;;;;;;;19.12;11.98;;;;;;;8.93;33.86;102518.19;143717;580;47006;-71
2022/01/27 07:53:43;;;;;;;21.40;12.40;;;;;;;9.01;33.79;102532.69;143715;671;47923;-70
2022/01/27 07:56:10;;;;;;;20.17;12.37;;;;;;;9.12;33.79;102520.97;143714;602;47006;-70
2022/01/27 07:58:38;;;;;;;14.77;10.20;;;;;;;9.28;33.37;102520.38;143718;583;46028;-70
2022/01/27 08:01:07;;;;;;;13.85;9.63;;;;;;;9.45;32.60;102527.66;143715;609;47006;-70
2022/01/27 08:03:37;;;;;;;10.38;7.90;;;;;;;9.59;32.36;102530.84;143722;606;46008;-70
2022/01/27 08:06:06;;;;;;;9.75;6.70;;;;;;;9.69;31.80;102531.66;143717;618;47006;-69
2022/01/27 08:08:34;;;;;;;10.43;6.30;;;;;;;9.73;31.48;102526.84;143723;647;46027;-69
2022/01/27 08:11:01;;;;;;;9.80;6.78;;;;;;;9.80;31.70;102538.66;143721;568;47006;-70
2022/01/27 08:13:28;;;;;;;17.70;11.18;;;;;;;9.92;32.24;102532.13;143719;591;46008;-70
2022/01/27 08:15:54;;;;;;;12.48;8.38;;;;;;;10.05;31.50;102537.16;143724;645;47006;-70
2022/01/27 08:18:21;;;;;;;13.43;9.00;;;;;;;10.11;31.04;102541.06;143721;704;47013;-70
2022/01/27 08:20:48;;;;;;;9.95;7.10;;;;;;;10.24;31.09;102532.63;143716;622;47004;-69
2022/01/27 08:23:15;;;;;;;12.52;7.85;;;;;;;10.30;30.93;102530.19;143718;567;46006;-70
2022/01/27 08:25:43;;;;;;;7.25;5.85;;;;;;;10.41;30.25;102539.06;143720;705;47002;-70
2022/01/27 08:28:22;;;;;;;10.48;6.47;;;;;;;10.47;30.38;102535.78;143722;579;46010;-70
2022/01/27 08:30:51;;;;;;;9.10;6.97;;;;;;;10.49;30.21;102539.16;143718;609;47004;-70
2022/01/27 08:33:19;;;;;;;14.60;10.48;;;;;;;10.65;30.24;102541.13;143722;573;46924;-70
2022/01/27 08:35:45;;;;;;;11.88;9.13;;;;;;;10.77;30.10;102545.25;143715;600;47002;-69
2022/01/27 08:38:13;;;;;;;10.88;7.93;;;;;;;10.85;29.74;102547.19;143722;744;46010;-70
2022/01/27 08:40:40;;;;;;;39.60;18.20;;;;;;;10.90;29.66;102544.03;143720;603;47004;-68
2022/01/27 08:43:08;;;;;;;28.33;15.02;;;;;;;10.97;29.28;102544.25;143718;578;46006;-69
2022/01/27 08:45:35;;;;;;;53.00;23.98;;;;;;;11.03;29.33;102547.16;143716;568;47002;-68
2022/01/27 08:48:01;;;;;;;50.45;22.08;;;;;;;11.19;29.50;102551.81;143716;580;47011;-69
2022/01/27 08:50:28;;;;;;;43.25;19.55;;;;;;;11.34;29.10;102559.31;143715;607;47004;-68
2022/01/27 08:52:55;;;;;;;37.03;19.52;;;;;;;11.44;28.94;102549.28;143718;580;46006;-69
2022/01/27 08:55:22;;;;;;;22.73;17.27;;;;;;;11.51;28.83;102550.34;143715;663;47004;-70
2022/01/27 08:57:49;;;;;;;11.85;8.07;;;;;;;11.63;29.08;102556.28;143716;690;47008;-69
2022/01/27 09:00:16;;;;;;;10.70;7.62;;;;;;;11.74;28.45;102547.06;143720;613;47004;-70
2022/01/27 09:02:42;;;;;;;11.95;7.22;;;;;;;11.77;28.37;102545.91;143720;597;46924;-69
2022/01/27 09:05:09;;;;;;;9.20;6.60;;;;;;;11.95;28.53;102541.28;143722;569;47002;-69
2022/01/27 09:07:36;;;;;;;9.10;6.65;;;;;;;12.15;28.46;102554.53;143718;600;47010;-70
2022/01/27 09:10:04;;;;;;;9.10;5.85;;;;;;;12.20;27.43;102546.75;143721;569;47002;-70
2022/01/27 09:12:31;;;;;;;8.48;6.50;;;;;;;12.20;27.50;102546.75;143717;682;46006;-70
2022/01/27 09:14:58;;;;;;;8.25;6.18;;;;;;;12.19;27.47;102552.31;143722;626;47002;-70
2022/01/27 09:17:26;;;;;;;7.62;5.85;;;;;;;12.26;27.49;102546.13;143720;587;47002;-69
2022/01/27 09:19:53;;;;;;;7.65;6.10;;;;;;;12.36;27.56;102556.75;143722;604;47004;-69
2022/01/27 09:22:20;;;;;;;7.07;5.82;;;;;;;12.55;27.93;102560.97;143722;584;46006;-69
2022/01/27 09:27:42;;;;;;;7.70;6.00;;;;;;;13.10;27.47;102555.13;143721;581;46010;-70
2022/01/27 09:30:13;;;;;;;8.70;7.25;;;;;;;13.81;26.37;102549.91;143721;579;47002;-70
2022/01/27 09:32:39;;;;;;;8.95;6.15;;;;;;;15.56;24.17;102550.28;143721;586;46006;-70
2022/01/27 09:35:07;;;;;;;6.95;5.28;;;;;;;21.84;16.74;102552.44;143723;604;47004;-71
2022/01/27 09:37:33;;;;;;;11.07;7.28;;;;;;;27.02;12.81;102550.34;143717;629;46010;-70
2022/01/27 09:40:00;;;;;;;11.23;8.20;;;;;;;30.05;10.09;102549.91;143721;604;47004;-71
2022/01/27 09:42:30;;;;;;;6.55;5.18;;;;;;;31.93;8.99;102550.50;143722;614;46012;-72
2022/01/27 09:45:01;;;;;;;6.62;5.25;;;;;;;33.17;7.99;102540.03;143723;573;47004;-71
2022/01/27 09:47:30;;;;;;;8.88;5.35;;;;;;;33.98;7.35;102533.00;143721;590;47011;-71
2022/01/27 09:50:24;;;;;;;9.32;7.28;;;;;;;34.93;6.76;102533.09;143722;572;47004;-71
2022/01/27 09:52:51;;;;;;;7.50;5.47;;;;;;;36.25;6.60;102530.50;143722;573;46006;-72
2022/01/27 09:55:18;;;;;;;6.82;5.50;;;;;;;37.26;5.88;102519.94;143725;569;47000;-71
2022/01/27 09:57:46;;;;;;;5.75;4.57;;;;;;;37.55;5.47;102516.28;143723;572;46008;-72
2022/01/27 10:00:13;;;;;;;6.72;4.75;;;;;;;38.15;5.07;102512.47;143721;584;47004;-71
2022/01/27 10:03:00;;;;;;;6.20;4.57;;;;;;;38.80;4.89;102504.28;143717;572;46925;-74
2022/01/27 10:05:27;;;;;;;4.80;4.32;;;;;;;39.59;4.77;102507.13;143722;599;47004;-74
2022/01/27 10:08:02;;;;;;;6.18;4.97;;;;;;;40.04;4.37;102505.19;143724;586;46009;-73
2022/01/27 10:10:33;;;;;;;8.23;5.82;;;;;;;40.59;4.01;102496.97;143720;568;47004;-74
2022/01/27 10:13:00;;;;;;;7.05;5.18;;;;;;;41.18;3.93;102500.03;143722;572;46006;-73
2022/01/27 10:15:26;;;;;;;8.57;5.97;;;;;;;41.64;3.66;102496.59;143721;598;47002;-74
2022/01/27 10:18:14;;;;;;;14.87;9.05;;;;;;;42.00;3.54;102483.19;143720;568;47011;-73
2022/01/27 10:20:58;;;;;;;6.85;5.93;;;;;;;42.14;3.82;102481.81;143722;595;47004;-74
2022/01/27 10:23:30;;;;;;;5.57;4.77;;;;;;;41.99;3.39;102484.37;143723;589;46007;-73
2022/01/27 10:26:08;;;;;;;25.92;13.98;;;;;;;42.09;3.34;102475.28;143723;572;47004;-73
2022/01/27 10:28:47;;;;;;;9.15;5.57;;;;;;;42.33;3.58;102470.44;143716;599;47010;-73
2022/01/27 10:31:20;;;;;;;6.72;5.95;;;;;;;42.48;2.99;102474.34;143718;572;47004;-74
2022/01/27 10:34:05;;;;;;;9.30;6.47;;;;;;;42.45;3.24;102466.66;143721;671;46006;-72
2022/01/27 10:36:43;;;;;;;11.25;7.60;;;;;;;40.42;4.20;102459.56;143722;580;47002;-72
2022/01/27 10:39:12;;;;;;;17.00;9.77;;;;;;;35.62;6.25;102452.59;143721;573;47010;-72
2022/01/27 10:41:56;;;;;;;12.90;8.13;;;;;;;32.62;8.01;102455.38;143719;609;47004;-72
2022/01/27 10:44:31;;;;;;;12.77;9.30;;;;;;;31.08;9.17;102448.28;143723;593;46006;-73
2022/01/27 10:47:16;;;;;;;12.88;7.35;;;;;;;31.42;8.81;102444.53;143720;932;47002;-72
2022/01/27 10:49:47;;;;;;;;;;;;;;;35.45;6.47;102448.66;143727;984;46010;-74
2022/01/27 10:52:26;;;;;;;4.20;3.65;;;;;;;38.19;5.33;102444.09;143725;972;47002;-73
2022/01/27 10:55:05;;;;;;;7.55;4.95;;;;;;;39.56;4.90;102446.78;143717;598;46006;-73
2022/01/27 10:57:31;;;;;;;8.55;4.70;;;;;;;40.12;4.33;102440.31;143723;572;47002;-73
2022/01/27 11:00:15;;;;;;;4.90;4.32;;;;;;;39.90;4.61;102438.91;143723;737;46008;-73
2022/01/27 11:02:53;;;;;;;5.03;3.97;;;;;;;39.79;4.22;102430.19;143720;820;47004;-75
2022/01/27 11:05:24;;;;;;;5.18;4.12;;;;;;;39.63;4.45;102426.47;143723;596;46006;-75
2022/01/27 11:07:51;;;;;;;6.60;5.00;;;;;;;39.43;4.58;102429.16;143723;654;47004;-74
2022/01/27 11:10:20;;;;;;;4.00;3.40;;;;;;;39.38;4.72;102418.19;143723;762;46025;-72
2022/01/27 11:12:47;;;;;;;5.55;4.28;;;;;;;39.26;4.19;102399.31;143722;586;47004;-73
2022/01/27 11:15:18;;;;;;;5.12;4.05;;;;;;;38.33;4.76;102406.44;143723;972;46007;-71
2022/01/27 11:17:46;;;;;;;4.55;3.80;;;;;;;34.31;6.66;102389.69;143721;572;47002;-74
2022/01/27 11:20:23;;;;;;;6.10;3.95;;;;;;;31.38;8.51;102390.72;143718;973;46010;-73
2022/01/27 11:23:12;;;;;;;5.68;4.22;;;;;;;29.80;9.98;102385.53;143721;567;47004;-74
2022/01/27 11:28:15;;;;;;;15.15;10.32;;;;;;;28.21;11.23;102384.28;143726;578;47002;-74
2022/01/27 11:31:24;;;;;;;7.40;4.93;;;;;;;27.68;11.30;102377.09;143719;573;47010;-72
2022/01/27 11:34:08;;;;;;;10.93;5.75;;;;;;;26.90;11.50;102367.75;143720;625;47004;-72
2022/01/27 11:36:36;;;;;;;8.77;7.40;;;;;;;25.83;12.52;102367.59;143719;573;46019;-73
2022/01/27 11:39:09;;;;;;;6.00;5.20;;;;;;;25.08;13.04;102370.09;143723;586;47004;-72
2022/01/27 11:41:48;;;;;;;5.80;4.87;;;;;;;24.37;13.71;102363.38;143721;837;47012;-73
2022/01/27 11:44:25;;;;;;;4.90;3.53;;;;;;;23.57;14.32;102356.00;143722;979;47006;-73
2022/01/27 11:47:47;;;;;;;4.80;4.30;;;;;;;22.85;15.11;102357.34;143716;672;47008;-74
2022/01/27 11:50:35;;;;;;;5.12;3.62;;;;;;;22.27;15.35;102354.38;143724;620;47004;-73
2022/01/27 11:53:11;;;;;;;9.20;4.60;;;;;;;21.58;15.73;102354.81;143720;718;47011;-73
2022/01/27 11:55:44;;;;;;;4.95;3.78;;;;;;;21.17;16.56;102355.37;143721;809;47006;-74
2022/01/27 11:58:19;;;;;;;4.78;3.70;;;;;;;20.79;16.95;102341.97;143722;583;46008;-72
2022/01/27 12:01:35;;;;;;;6.15;4.07;;;;;;;20.36;17.24;102349.94;143725;573;47002;-73
2022/01/27 12:04:09;;;;;;;5.43;4.15;;;;;;;19.98;17.72;102348.16;143721;569;47012;-71
2022/01/27 12:07:01;;;;;;;5.60;3.80;;;;;;;19.69;18.42;102340.38;143724;588;47006;-72
2022/01/27 12:09:30;;;;;;;4.72;3.65;;;;;;;19.44;18.86;102340.31;143722;580;47006;-72
2022/01/27 12:12:11;;;;;;;7.43;5.18;;;;;;;19.20;19.05;102336.47;143724;643;47006;-71
2022/01/27 12:15:03;;;;;;;4.65;3.55;;;;;;;19.02;19.24;102337.19;143714;608;47012;-72
2022/01/27 12:17:29;;;;;;;4.62;3.55;;;;;;;18.86;19.78;102341.19;143722;590;47013;-72
2022/01/27 12:20:08;;;;;;;5.95;4.00;;;;;;;18.61;19.23;102329.09;143723;591;46008;-75
2022/01/27 12:23:01;;;;;;;4.18;3.50;;;;;;;18.26;20.07;102325.84;143724;618;47005;-75
2022/01/27 12:25:45;;;;;;;4.55;3.30;;;;;;;18.12;19.71;102322.28;143721;586;47012;-72